sensor_id;sensor_type;location;lat;lon;timestamp;noise_LAeq;noise_LA_min;noise_LA_max;noise_LA01;noise_LA95
64393;Laerm;50712;49.506;10.400;2023-06-10T00:00:29;34.10;28.71;59.39;;
64393;Laerm;50712;49.506;10.400;2023-06-10T00:01:01;31.12;28.98;35.26;;
64393;Laerm;50712;49.506;10.400;2023-06-10T00:01:32;31.34;29.22;38.00;;
64393;Laerm;50712;49.506;10.400;2023-06-10T00:02:04;31.51;28.76;38.89;;
64393;Laerm;50712;49.506;10.400;2023-06-10T00:02:34;30.73;28.69;40.82;;
64393;Laerm;50712;49.506;10.400;2023-06-10T00:03:05;31.71;28.91;54.92;;
64393;Laerm;50712;49.506;10.400;2023-06-10T00:03:35;30.18;28.43;32.62;;
64393;Laerm;50712;49.506;10.400;2023-06-10T00:04:06;30.34;28.61;33.30;;
64393;Laerm;50712;49.506;10.400;2023-06-10T00:04:36;29.87;27.91;37.04;;
64393;Laerm;50712;49.506;10.400;2023-06-10T00:05:38;31.84;29.36;46.30;;
64393;Laerm;50712;49.506;10.400;2023-06-10T00:06:09;34.95;30.75;41.44;;
64393;Laerm;50712;49.506;10.400;2023-06-10T00:06:39;35.89;31.34;42.27;;
64393;Laerm;50712;49.506;10.400;2023-06-10T00:07:09;39.03;29.76;54.22;;
64393;Laerm;50712;49.506;10.400;2023-06-10T00:07:40;36.04;30.39;43.12;;
64393;Laerm;50712;49.506;10.400;2023-06-10T00:08:11;31.04;27.98;37.94;;
64393;Laerm;50712;49.506;10.400;2023-06-10T00:08:41;29.41;27.74;33.64;;
64393;Laerm;50712;49.506;10.400;2023-06-10T00:09:12;31.48;28.19;35.81;;
64393;Laerm;50712;49.506;10.400;2023-06-10T00:09:44;30.37;28.12;34.65;;
64393;Laerm;50712;49.506;10.400;2023-06-10T00:10:14;30.54;28.27;47.10;;
64393;Laerm;50712;49.506;10.400;2023-06-10T00:10:45;30.71;28.54;49.12;;
64393;Laerm;50712;49.506;10.400;2023-06-10T00:11:15;30.36;28.27;34.15;;
64393;Laerm;50712;49.506;10.400;2023-06-10T00:11:46;34.40;29.60;41.10;;
64393;Laerm;50712;49.506;10.400;2023-06-10T00:12:16;38.71;33.10;44.86;;
64393;Laerm;50712;49.506;10.400;2023-06-10T00:12:48;37.24;30.86;44.19;;
64393;Laerm;50712;49.506;10.400;2023-06-10T00:13:18;34.63;29.74;46.47;;
64393;Laerm;50712;49.506;10.400;2023-06-10T00:13:48;33.77;29.50;40.34;;
64393;Laerm;50712;49.506;10.400;2023-06-10T00:14:19;31.71;28.74;41.89;;
64393;Laerm;50712;49.506;10.400;2023-06-10T00:14:49;31.27;28.38;44.30;;
64393;Laerm;50712;49.506;10.400;2023-06-10T00:15:21;31.28;28.49;49.63;;
64393;Laerm;50712;49.506;10.400;2023-06-10T00:15:52;30.30;28.15;35.48;;
64393;Laerm;50712;49.506;10.400;2023-06-10T00:16:22;31.14;28.74;45.65;;
64393;Laerm;50712;49.506;10.400;2023-06-10T00:16:52;30.98;27.99;49.30;;
64393;Laerm;50712;49.506;10.400;2023-06-10T00:17:23;30.53;28.10;46.88;;
64393;Laerm;50712;49.506;10.400;2023-06-10T00:17:53;32.00;28.43;55.58;;
64393;Laerm;50712;49.506;10.400;2023-06-10T00:18:25;29.83;28.07;34.38;;
64393;Laerm;50712;49.506;10.400;2023-06-10T00:18:59;31.01;28.24;49.94;;
64393;Laerm;50712;49.506;10.400;2023-06-10T00:19:31;30.50;28.12;33.57;;
64393;Laerm;50712;49.506;10.400;2023-06-10T00:20:01;31.68;27.91;53.00;;
64393;Laerm;50712;49.506;10.400;2023-06-10T00:21:38;31.63;28.32;37.46;;
64393;Laerm;50712;49.506;10.400;2023-06-10T00:22:10;37.80;31.51;44.22;;
64393;Laerm;50712;49.506;10.400;2023-06-10T00:22:40;37.20;31.77;44.71;;
64393;Laerm;50712;49.506;10.400;2023-06-10T00:23:15;34.74;29.98;40.43;;
64393;Laerm;50712;49.506;10.400;2023-06-10T00:23:46;33.49;29.34;38.80;;
64393;Laerm;50712;49.506;10.400;2023-06-10T00:24:17;31.50;29.00;34.83;;
64393;Laerm;50712;49.506;10.400;2023-06-10T00:24:47;30.16;28.51;40.80;;
64393;Laerm;50712;49.506;10.400;2023-06-10T00:25:18;34.22;28.03;58.36;;
64393;Laerm;50712;49.506;10.400;2023-06-10T00:25:49;30.63;28.53;33.88;;
64393;Laerm;50712;49.506;10.400;2023-06-10T00:26:19;31.53;28.62;41.30;;
64393;Laerm;50712;49.506;10.400;2023-06-10T00:26:50;32.80;29.53;48.54;;
64393;Laerm;50712;49.506;10.400;2023-06-10T00:27:21;37.07;31.45;43.70;;
64393;Laerm;50712;49.506;10.400;2023-06-10T00:27:51;37.65;31.39;57.88;;
64393;Laerm;50712;49.506;10.400;2023-06-10T00:28:22;33.69;29.63;49.71;;
64393;Laerm;50712;49.506;10.400;2023-06-10T00:28:52;32.81;28.92;51.56;;
64393;Laerm;50712;49.506;10.400;2023-06-10T00:29:25;30.31;28.52;35.84;;
64393;Laerm;50712;49.506;10.400;2023-06-10T00:29:56;30.25;28.46;36.81;;
64393;Laerm;50712;49.506;10.400;2023-06-10T00:30:28;29.69;28.28;31.60;;
64393;Laerm;50712;49.506;10.400;2023-06-10T00:30:58;29.67;28.17;35.71;;
64393;Laerm;50712;49.506;10.400;2023-06-10T00:31:28;29.89;28.31;33.77;;
64393;Laerm;50712;49.506;10.400;2023-06-10T00:31:59;31.58;28.55;48.12;;
64393;Laerm;50712;49.506;10.400;2023-06-10T00:32:30;31.54;28.93;39.47;;
64393;Laerm;50712;49.506;10.400;2023-06-10T00:33:01;31.73;29.29;40.55;;
64393;Laerm;50712;49.506;10.400;2023-06-10T00:33:31;31.44;29.16;44.88;;
64393;Laerm;50712;49.506;10.400;2023-06-10T00:34:01;31.49;28.43;35.32;;
64393;Laerm;50712;49.506;10.400;2023-06-10T00:34:32;33.80;29.02;56.54;;
64393;Laerm;50712;49.506;10.400;2023-06-10T00:35:03;31.65;28.65;47.71;;
64393;Laerm;50712;49.506;10.400;2023-06-10T00:35:35;30.50;28.43;37.15;;
64393;Laerm;50712;49.506;10.400;2023-06-10T00:36:05;30.55;28.24;34.08;;
64393;Laerm;50712;49.506;10.400;2023-06-10T00:36:36;29.69;28.02;32.75;;
64393;Laerm;50712;49.506;10.400;2023-06-10T00:37:07;30.46;28.35;39.49;;
64393;Laerm;50712;49.506;10.400;2023-06-10T00:37:37;32.63;29.42;47.48;;
64393;Laerm;50712;49.506;10.400;2023-06-10T00:38:08;33.35;30.22;37.81;;
64393;Laerm;50712;49.506;10.400;2023-06-10T00:38:38;32.54;29.02;42.38;;
64393;Laerm;50712;49.506;10.400;2023-06-10T00:39:10;30.55;28.62;35.79;;
64393;Laerm;50712;49.506;10.400;2023-06-10T00:39:41;34.56;28.63;58.62;;
64393;Laerm;50712;49.506;10.400;2023-06-10T00:40:12;30.20;28.54;35.10;;
64393;Laerm;50712;49.506;10.400;2023-06-10T00:40:42;31.29;28.37;44.98;;
64393;Laerm;50712;49.506;10.400;2023-06-10T00:41:13;32.48;28.66;52.69;;
64393;Laerm;50712;49.506;10.400;2023-06-10T00:41:43;30.74;28.61;35.48;;
64393;Laerm;50712;49.506;10.400;2023-06-10T00:42:15;31.26;28.24;52.74;;
64393;Laerm;50712;49.506;10.400;2023-06-10T00:42:45;31.38;28.16;46.85;;
64393;Laerm;50712;49.506;10.400;2023-06-10T00:43:16;30.75;28.25;34.58;;
64393;Laerm;50712;49.506;10.400;2023-06-10T00:43:46;30.67;28.69;33.69;;
64393;Laerm;50712;49.506;10.400;2023-06-10T00:44:18;30.14;28.53;32.14;;
64393;Laerm;50712;49.506;10.400;2023-06-10T00:44:48;30.80;27.89;42.58;;
64393;Laerm;50712;49.506;10.400;2023-06-10T00:45:19;30.70;27.95;45.25;;
64393;Laerm;50712;49.506;10.400;2023-06-10T00:45:49;30.11;28.04;47.77;;
64393;Laerm;50712;49.506;10.400;2023-06-10T00:46:22;30.79;27.93;52.57;;
64393;Laerm;50712;49.506;10.400;2023-06-10T00:46:53;33.36;28.76;55.36;;
64393;Laerm;50712;49.506;10.400;2023-06-10T00:47:26;33.26;28.86;38.94;;
64393;Laerm;50712;49.506;10.400;2023-06-10T00:47:58;35.80;31.92;45.85;;
64393;Laerm;50712;49.506;10.400;2023-06-10T00:48:28;34.44;30.68;38.59;;
64393;Laerm;50712;49.506;10.400;2023-06-10T00:49:00;32.99;29.50;37.77;;
64393;Laerm;50712;49.506;10.400;2023-06-10T00:49:32;31.18;29.12;34.95;;
64393;Laerm;50712;49.506;10.400;2023-06-10T00:50:03;30.42;28.53;33.50;;
64393;Laerm;50712;49.506;10.400;2023-06-10T00:50:34;30.28;28.32;36.95;;
64393;Laerm;50712;49.506;10.400;2023-06-10T00:51:08;29.88;27.97;34.95;;
64393;Laerm;50712;49.506;10.400;2023-06-10T00:51:39;30.10;28.35;37.01;;
64393;Laerm;50712;49.506;10.400;2023-06-10T00:52:10;32.03;29.06;36.25;;
64393;Laerm;50712;49.506;10.400;2023-06-10T00:52:41;34.84;30.81;41.18;;
64393;Laerm;50712;49.506;10.400;2023-06-10T00:53:45;35.89;31.38;45.13;;
64393;Laerm;50712;49.506;10.400;2023-06-10T00:54:15;34.66;30.33;44.57;;
64393;Laerm;50712;49.506;10.400;2023-06-10T00:54:46;33.57;29.56;39.95;;
64393;Laerm;50712;49.506;10.400;2023-06-10T00:55:17;33.51;29.84;39.17;;
64393;Laerm;50712;49.506;10.400;2023-06-10T00:55:47;31.45;29.08;35.26;;
64393;Laerm;50712;49.506;10.400;2023-06-10T00:56:18;30.55;28.44;36.11;;
64393;Laerm;50712;49.506;10.400;2023-06-10T00:56:49;30.71;28.29;38.57;;
64393;Laerm;50712;49.506;10.400;2023-06-10T00:57:20;29.62;27.90;33.79;;
64393;Laerm;50712;49.506;10.400;2023-06-10T00:57:52;29.60;27.93;37.66;;
64393;Laerm;50712;49.506;10.400;2023-06-10T00:58:24;29.61;28.24;31.99;;
64393;Laerm;50712;49.506;10.400;2023-06-10T00:58:55;29.61;27.98;37.06;;
64393;Laerm;50712;49.506;10.400;2023-06-10T00:59:26;29.55;28.11;32.76;;
64393;Laerm;50712;49.506;10.400;2023-06-10T00:59:56;29.24;27.96;30.43;;
64393;Laerm;50712;49.506;10.400;2023-06-10T01:00:27;29.24;28.02;37.85;;
64393;Laerm;50712;49.506;10.400;2023-06-10T01:00:58;29.98;28.23;35.95;;
64393;Laerm;50712;49.506;10.400;2023-06-10T01:01:31;29.50;28.14;32.02;;
64393;Laerm;50712;49.506;10.400;2023-06-10T01:02:05;29.73;28.11;35.58;;
64393;Laerm;50712;49.506;10.400;2023-06-10T01:02:35;29.34;27.86;34.69;;
64393;Laerm;50712;49.506;10.400;2023-06-10T01:03:06;29.84;28.33;33.75;;
64393;Laerm;50712;49.506;10.400;2023-06-10T01:03:39;30.62;28.56;33.63;;
64393;Laerm;50712;49.506;10.400;2023-06-10T01:04:10;31.35;28.61;37.74;;
64393;Laerm;50712;49.506;10.400;2023-06-10T01:04:42;30.22;28.45;35.03;;
64393;Laerm;50712;49.506;10.400;2023-06-10T01:05:13;30.40;28.60;33.91;;
64393;Laerm;50712;49.506;10.400;2023-06-10T01:05:44;30.35;28.56;45.54;;
64393;Laerm;50712;49.506;10.400;2023-06-10T01:06:39;30.35;28.07;42.15;;
64393;Laerm;50712;49.506;10.400;2023-06-10T01:07:40;30.23;28.27;37.78;;
64393;Laerm;50712;49.506;10.400;2023-06-10T01:08:21;30.29;28.39;34.67;;
64393;Laerm;50712;49.506;10.400;2023-06-10T01:09:04;30.02;28.17;33.43;;
64393;Laerm;50712;49.506;10.400;2023-06-10T01:09:55;30.17;28.30;37.15;;
64393;Laerm;50712;49.506;10.400;2023-06-10T01:11:08;30.80;28.48;35.85;;
64393;Laerm;50712;49.506;10.400;2023-06-10T01:11:47;31.81;28.46;41.17;;
64393;Laerm;50712;49.506;10.400;2023-06-10T01:12:51;30.50;28.40;35.50;;
64393;Laerm;50712;49.506;10.400;2023-06-10T01:13:27;31.50;28.81;37.46;;
64393;Laerm;50712;49.506;10.400;2023-06-10T01:14:03;32.64;28.93;42.45;;
64393;Laerm;50712;49.506;10.400;2023-06-10T01:14:38;32.26;29.00;37.33;;
64393;Laerm;50712;49.506;10.400;2023-06-10T01:15:15;31.68;28.94;40.01;;
64393;Laerm;50712;49.506;10.400;2023-06-10T01:15:45;31.51;28.70;35.57;;
64393;Laerm;50712;49.506;10.400;2023-06-10T01:16:18;31.05;28.60;38.30;;
64393;Laerm;50712;49.506;10.400;2023-06-10T01:16:49;30.84;28.38;36.65;;
64393;Laerm;50712;49.506;10.400;2023-06-10T01:17:20;32.02;28.88;36.03;;
64393;Laerm;50712;49.506;10.400;2023-06-10T01:18:31;32.18;29.34;37.60;;
64393;Laerm;50712;49.506;10.400;2023-06-10T01:19:03;33.21;28.71;40.13;;
64393;Laerm;50712;49.506;10.400;2023-06-10T01:19:33;32.08;29.29;38.78;;
64393;Laerm;50712;49.506;10.400;2023-06-10T01:20:04;32.80;29.45;38.00;;
64393;Laerm;50712;49.506;10.400;2023-06-10T01:20:36;32.21;28.95;38.32;;
64393;Laerm;50712;49.506;10.400;2023-06-10T01:21:22;32.20;29.25;40.37;;
64393;Laerm;50712;49.506;10.400;2023-06-10T01:21:57;32.15;28.79;38.24;;
64393;Laerm;50712;49.506;10.400;2023-06-10T01:22:30;32.64;29.05;39.12;;
64393;Laerm;50712;49.506;10.400;2023-06-10T01:23:07;32.30;29.06;38.87;;
64393;Laerm;50712;49.506;10.400;2023-06-10T01:23:37;32.58;29.58;40.78;;
64393;Laerm;50712;49.506;10.400;2023-06-10T01:24:08;32.55;29.43;38.76;;
64393;Laerm;50712;49.506;10.400;2023-06-10T01:24:38;33.22;29.30;39.29;;
64393;Laerm;50712;49.506;10.400;2023-06-10T01:25:11;32.42;28.96;37.89;;
64393;Laerm;50712;49.506;10.400;2023-06-10T01:25:46;31.82;28.74;38.25;;
64393;Laerm;50712;49.506;10.400;2023-06-10T01:26:20;32.04;28.69;38.73;;
64393;Laerm;50712;49.506;10.400;2023-06-10T01:26:53;30.56;28.40;40.49;;
64393;Laerm;50712;49.506;10.400;2023-06-10T01:27:32;30.39;28.69;32.39;;
64393;Laerm;50712;49.506;10.400;2023-06-10T01:29:07;31.04;29.01;35.53;;
64393;Laerm;50712;49.506;10.400;2023-06-10T01:29:50;30.51;28.78;36.14;;
64393;Laerm;50712;49.506;10.400;2023-06-10T01:31:09;31.75;29.31;35.75;;
64393;Laerm;50712;49.506;10.400;2023-06-10T01:31:48;32.63;29.61;40.12;;
64393;Laerm;50712;49.506;10.400;2023-06-10T01:32:29;32.44;29.81;37.40;;
64393;Laerm;50712;49.506;10.400;2023-06-10T01:33:02;31.57;29.57;35.12;;
64393;Laerm;50712;49.506;10.400;2023-06-10T01:33:34;31.78;29.53;34.44;;
64393;Laerm;50712;49.506;10.400;2023-06-10T01:34:12;31.65;29.67;36.83;;
64393;Laerm;50712;49.506;10.400;2023-06-10T01:34:44;30.70;28.53;32.70;;
64393;Laerm;50712;49.506;10.400;2023-06-10T01:35:15;30.72;28.89;32.71;;
64393;Laerm;50712;49.506;10.400;2023-06-10T01:35:47;30.55;28.68;32.53;;
64393;Laerm;50712;49.506;10.400;2023-06-10T01:36:19;31.22;29.54;36.83;;
64393;Laerm;50712;49.506;10.400;2023-06-10T01:36:54;31.54;29.31;34.53;;
64393;Laerm;50712;49.506;10.400;2023-06-10T01:37:27;30.78;29.04;33.58;;
64393;Laerm;50712;49.506;10.400;2023-06-10T01:37:58;30.78;29.04;33.58;;
64393;Laerm;50712;49.506;10.400;2023-06-10T01:38:39;31.58;29.25;34.82;;
64393;Laerm;50712;49.506;10.400;2023-06-10T01:39:42;30.24;28.74;33.43;;
64393;Laerm;50712;49.506;10.400;2023-06-10T01:40:13;30.37;28.87;34.57;;
64393;Laerm;50712;49.506;10.400;2023-06-10T01:40:45;31.19;29.16;33.78;;
64393;Laerm;50712;49.506;10.400;2023-06-10T01:41:17;30.55;28.64;32.89;;
64393;Laerm;50712;49.506;10.400;2023-06-10T01:41:48;30.97;28.82;33.43;;
64393;Laerm;50712;49.506;10.400;2023-06-10T01:42:20;31.28;29.45;33.92;;
64393;Laerm;50712;49.506;10.400;2023-06-10T01:42:50;31.25;29.33;32.95;;
64393;Laerm;50712;49.506;10.400;2023-06-10T01:43:22;31.23;29.25;35.35;;
64393;Laerm;50712;49.506;10.400;2023-06-10T01:44:24;31.72;29.76;34.21;;
64393;Laerm;50712;49.506;10.400;2023-06-10T01:44:54;31.28;28.82;36.53;;
64393;Laerm;50712;49.506;10.400;2023-06-10T01:45:25;31.22;29.00;33.79;;
64393;Laerm;50712;49.506;10.400;2023-06-10T01:45:55;31.84;29.32;36.20;;
64393;Laerm;50712;49.506;10.400;2023-06-10T01:46:25;31.72;29.72;34.31;;
64393;Laerm;50712;49.506;10.400;2023-06-10T01:46:56;31.79;29.58;39.83;;
64393;Laerm;50712;49.506;10.400;2023-06-10T01:47:26;31.19;28.95;33.88;;
64393;Laerm;50712;49.506;10.400;2023-06-10T01:47:57;30.98;29.06;34.39;;
64393;Laerm;50712;49.506;10.400;2023-06-10T01:48:27;31.33;29.37;34.45;;
64393;Laerm;50712;49.506;10.400;2023-06-10T01:48:57;30.98;29.19;33.52;;
64393;Laerm;50712;49.506;10.400;2023-06-10T01:49:28;30.22;28.80;32.09;;
64393;Laerm;50712;49.506;10.400;2023-06-10T01:49:58;30.63;28.90;40.28;;
64393;Laerm;50712;49.506;10.400;2023-06-10T01:50:29;30.19;28.58;32.17;;
64393;Laerm;50712;49.506;10.400;2023-06-10T01:51:00;30.08;28.59;31.89;;
64393;Laerm;50712;49.506;10.400;2023-06-10T01:51:30;30.33;28.63;33.43;;
64393;Laerm;50712;49.506;10.400;2023-06-10T01:52:01;30.96;28.54;37.46;;
64393;Laerm;50712;49.506;10.400;2023-06-10T01:52:32;30.54;28.58;35.26;;
64393;Laerm;50712;49.506;10.400;2023-06-10T01:53:03;30.08;28.38;37.91;;
64393;Laerm;50712;49.506;10.400;2023-06-10T01:53:34;29.72;28.11;31.45;;
64393;Laerm;50712;49.506;10.400;2023-06-10T01:54:04;29.58;28.24;31.88;;
64393;Laerm;50712;49.506;10.400;2023-06-10T01:54:35;29.34;28.15;31.74;;
64393;Laerm;50712;49.506;10.400;2023-06-10T01:55:06;29.28;27.70;32.47;;
64393;Laerm;50712;49.506;10.400;2023-06-10T01:55:36;29.55;28.16;31.37;;
64393;Laerm;50712;49.506;10.400;2023-06-10T01:56:07;29.65;28.11;37.91;;
64393;Laerm;50712;49.506;10.400;2023-06-10T01:56:37;29.43;27.84;32.77;;
64393;Laerm;50712;49.506;10.400;2023-06-10T01:57:08;29.50;27.86;31.99;;
64393;Laerm;50712;49.506;10.400;2023-06-10T01:57:38;29.34;27.77;37.87;;
64393;Laerm;50712;49.506;10.400;2023-06-10T01:58:08;29.03;27.69;30.79;;
64393;Laerm;50712;49.506;10.400;2023-06-10T01:58:39;29.16;27.88;30.45;;
64393;Laerm;50712;49.506;10.400;2023-06-10T01:59:10;29.32;27.72;30.66;;
64393;Laerm;50712;49.506;10.400;2023-06-10T01:59:41;29.45;28.07;31.95;;
64393;Laerm;50712;49.506;10.400;2023-06-10T02:00:14;30.64;28.18;34.74;;
64393;Laerm;50712;49.506;10.400;2023-06-10T02:00:45;30.24;28.62;34.43;;
64393;Laerm;50712;49.506;10.400;2023-06-10T02:01:16;31.35;28.89;38.07;;
64393;Laerm;50712;49.506;10.400;2023-06-10T02:01:46;35.45;29.53;42.02;;
64393;Laerm;50712;49.506;10.400;2023-06-10T02:02:16;33.32;29.54;39.67;;
64393;Laerm;50712;49.506;10.400;2023-06-10T02:02:47;31.98;29.73;43.50;;
64393;Laerm;50712;49.506;10.400;2023-06-10T02:03:17;31.93;29.73;35.73;;
64393;Laerm;50712;49.506;10.400;2023-06-10T02:03:48;31.63;29.59;34.74;;
64393;Laerm;50712;49.506;10.400;2023-06-10T02:04:19;31.87;29.61;35.23;;
64393;Laerm;50712;49.506;10.400;2023-06-10T02:04:49;31.81;28.98;36.92;;
64393;Laerm;50712;49.506;10.400;2023-06-10T02:05:20;31.45;29.47;35.06;;
64393;Laerm;50712;49.506;10.400;2023-06-10T02:05:50;30.90;28.89;36.55;;
64393;Laerm;50712;49.506;10.400;2023-06-10T02:06:51;31.16;28.29;38.93;;
64393;Laerm;50712;49.506;10.400;2023-06-10T02:07:21;31.62;28.93;38.90;;
64393;Laerm;50712;49.506;10.400;2023-06-10T02:07:52;31.11;28.50;37.05;;
64393;Laerm;50712;49.506;10.400;2023-06-10T02:08:25;31.00;28.65;38.72;;
64393;Laerm;50712;49.506;10.400;2023-06-10T02:08:57;31.38;28.63;39.83;;
64393;Laerm;50712;49.506;10.400;2023-06-10T02:09:28;31.60;28.86;37.50;;
64393;Laerm;50712;49.506;10.400;2023-06-10T02:09:58;31.83;29.12;38.18;;
64393;Laerm;50712;49.506;10.400;2023-06-10T02:10:28;32.39;28.86;40.65;;
64393;Laerm;50712;49.506;10.400;2023-06-10T02:11:01;37.92;29.88;42.70;;
64393;Laerm;50712;49.506;10.400;2023-06-10T02:11:33;33.63;29.17;41.22;;
64393;Laerm;50712;49.506;10.400;2023-06-10T02:12:04;34.18;29.58;41.81;;
64393;Laerm;50712;49.506;10.400;2023-06-10T02:12:34;34.78;31.47;40.03;;
64393;Laerm;50712;49.506;10.400;2023-06-10T02:13:05;34.89;30.23;40.06;;
64393;Laerm;50712;49.506;10.400;2023-06-10T02:13:35;33.11;29.70;39.94;;
64393;Laerm;50712;49.506;10.400;2023-06-10T02:14:06;33.26;30.13;39.26;;
64393;Laerm;50712;49.506;10.400;2023-06-10T02:14:36;33.41;29.73;39.13;;
64393;Laerm;50712;49.506;10.400;2023-06-10T02:15:06;34.45;29.64;43.71;;
64393;Laerm;50712;49.506;10.400;2023-06-10T02:15:37;37.36;30.09;50.74;;
64393;Laerm;50712;49.506;10.400;2023-06-10T02:16:07;38.35;29.55;52.10;;
64393;Laerm;50712;49.506;10.400;2023-06-10T02:16:37;36.23;29.56;46.84;;
64393;Laerm;50712;49.506;10.400;2023-06-10T02:17:09;44.73;29.61;62.63;;
64393;Laerm;50712;49.506;10.400;2023-06-10T02:17:42;47.01;29.22;64.56;;
64393;Laerm;50712;49.506;10.400;2023-06-10T02:18:16;46.14;30.29;64.12;;
64393;Laerm;50712;49.506;10.400;2023-06-10T02:18:50;44.60;29.94;62.28;;
64393;Laerm;50712;49.506;10.400;2023-06-10T02:19:20;47.67;30.28;64.80;;
64393;Laerm;50712;49.506;10.400;2023-06-10T02:19:52;46.36;30.67;63.45;;
64393;Laerm;50712;49.506;10.400;2023-06-10T02:20:56;44.92;30.93;62.29;;
64393;Laerm;50712;49.506;10.400;2023-06-10T02:21:27;45.85;31.18;64.92;;
64393;Laerm;50712;49.506;10.400;2023-06-10T02:21:57;45.58;30.61;62.54;;
64393;Laerm;50712;49.506;10.400;2023-06-10T02:22:27;46.62;30.78;63.25;;
64393;Laerm;50712;49.506;10.400;2023-06-10T02:22:58;46.26;30.17;64.34;;
64393;Laerm;50712;49.506;10.400;2023-06-10T02:23:29;45.84;30.33;62.86;;
64393;Laerm;50712;49.506;10.400;2023-06-10T02:24:00;47.54;30.95;62.91;;
64393;Laerm;50712;49.506;10.400;2023-06-10T02:24:31;47.35;30.90;64.48;;
64393;Laerm;50712;49.506;10.400;2023-06-10T02:25:02;45.91;31.35;64.17;;
64393;Laerm;50712;49.506;10.400;2023-06-10T02:25:35;45.55;30.74;61.26;;
64393;Laerm;50712;49.506;10.400;2023-06-10T02:26:05;47.04;31.15;63.03;;
64393;Laerm;50712;49.506;10.400;2023-06-10T02:26:36;45.22;30.75;61.49;;
64393;Laerm;50712;49.506;10.400;2023-06-10T02:27:06;46.95;29.81;64.85;;
64393;Laerm;50712;49.506;10.400;2023-06-10T02:27:37;44.40;29.90;61.71;;
64393;Laerm;50712;49.506;10.400;2023-06-10T02:28:08;43.91;31.14;58.80;;
64393;Laerm;50712;49.506;10.400;2023-06-10T02:28:40;43.91;29.95;57.44;;
64393;Laerm;50712;49.506;10.400;2023-06-10T02:29:13;43.14;30.42;58.98;;
64393;Laerm;50712;49.506;10.400;2023-06-10T02:29:43;44.29;30.70;57.08;;
64393;Laerm;50712;49.506;10.400;2023-06-10T02:30:14;39.65;31.33;56.09;;
64393;Laerm;50712;49.506;10.400;2023-06-10T02:30:45;36.55;30.25;46.66;;
64393;Laerm;50712;49.506;10.400;2023-06-10T02:31:17;36.71;30.66;48.36;;
64393;Laerm;50712;49.506;10.400;2023-06-10T02:31:48;33.97;30.18;42.23;;
64393;Laerm;50712;49.506;10.400;2023-06-10T02:32:18;34.79;30.55;52.54;;
64393;Laerm;50712;49.506;10.400;2023-06-10T02:32:49;56.18;30.40;72.18;;
64393;Laerm;50712;49.506;10.400;2023-06-10T02:33:23;58.36;30.72;74.25;;
64393;Laerm;50712;49.506;10.400;2023-06-10T02:33:54;56.94;30.65;71.52;;
64393;Laerm;50712;49.506;10.400;2023-06-10T02:34:26;57.46;30.44;72.22;;
64393;Laerm;50712;49.506;10.400;2023-06-10T02:34:57;34.25;30.21;50.29;;
64393;Laerm;50712;49.506;10.400;2023-06-10T02:35:29;33.34;30.11;38.17;;
64393;Laerm;50712;49.506;10.400;2023-06-10T02:36:00;33.53;30.37;37.88;;
64393;Laerm;50712;49.506;10.400;2023-06-10T02:36:31;34.33;30.70;43.06;;
64393;Laerm;50712;49.506;10.400;2023-06-10T02:37:02;35.26;30.78;45.41;;
64393;Laerm;50712;49.506;10.400;2023-06-10T02:37:34;34.26;31.25;44.06;;
64393;Laerm;50712;49.506;10.400;2023-06-10T02:38:05;35.61;30.17;43.20;;
64393;Laerm;50712;49.506;10.400;2023-06-10T02:38:37;33.94;29.84;43.06;;
64393;Laerm;50712;49.506;10.400;2023-06-10T02:39:08;34.82;30.39;41.44;;
64393;Laerm;50712;49.506;10.400;2023-06-10T02:39:39;34.88;30.88;43.38;;
64393;Laerm;50712;49.506;10.400;2023-06-10T02:40:13;37.17;31.03;48.62;;
64393;Laerm;50712;49.506;10.400;2023-06-10T02:40:43;35.53;31.22;45.00;;
64393;Laerm;50712;49.506;10.400;2023-06-10T02:41:15;33.96;29.98;41.58;;
64393;Laerm;50712;49.506;10.400;2023-06-10T02:41:45;34.04;30.00;48.44;;
64393;Laerm;50712;49.506;10.400;2023-06-10T02:42:17;34.47;29.73;46.32;;
64393;Laerm;50712;49.506;10.400;2023-06-10T02:42:47;32.94;29.97;37.59;;
64393;Laerm;50712;49.506;10.400;2023-06-10T02:43:18;32.92;30.19;38.71;;
64393;Laerm;50712;49.506;10.400;2023-06-10T02:43:48;33.56;30.89;38.42;;
64393;Laerm;50712;49.506;10.400;2023-06-10T02:44:19;33.26;30.40;37.54;;
64393;Laerm;50712;49.506;10.400;2023-06-10T02:44:50;33.43;30.78;39.00;;
64393;Laerm;50712;49.506;10.400;2023-06-10T02:45:29;33.23;29.94;38.66;;
64393;Laerm;50712;49.506;10.400;2023-06-10T02:46:01;32.68;30.14;39.22;;
64393;Laerm;50712;49.506;10.400;2023-06-10T02:46:32;33.44;30.59;37.57;;
64393;Laerm;50712;49.506;10.400;2023-06-10T02:47:03;33.83;30.83;38.84;;
64393;Laerm;50712;49.506;10.400;2023-06-10T02:47:37;38.73;31.95;43.81;;
64393;Laerm;50712;49.506;10.400;2023-06-10T02:48:07;38.43;33.43;43.36;;
64393;Laerm;50712;49.506;10.400;2023-06-10T02:48:42;35.52;31.09;40.71;;
64393;Laerm;50712;49.506;10.400;2023-06-10T02:49:14;34.47;30.72;39.15;;
64393;Laerm;50712;49.506;10.400;2023-06-10T02:49:45;34.89;31.27;40.35;;
64393;Laerm;50712;49.506;10.400;2023-06-10T02:50:16;34.57;30.83;39.38;;
64393;Laerm;50712;49.506;10.400;2023-06-10T02:51:06;37.75;30.74;55.87;;
64393;Laerm;50712;49.506;10.400;2023-06-10T02:51:42;35.99;31.58;40.73;;
64393;Laerm;50712;49.506;10.400;2023-06-10T02:52:12;36.73;32.58;42.18;;
64393;Laerm;50712;49.506;10.400;2023-06-10T02:52:43;36.37;32.62;41.33;;
64393;Laerm;50712;49.506;10.400;2023-06-10T02:53:15;36.38;32.46;42.68;;
64393;Laerm;50712;49.506;10.400;2023-06-10T02:53:50;37.63;32.06;44.15;;
64393;Laerm;50712;49.506;10.400;2023-06-10T02:54:20;36.02;31.98;43.69;;
64393;Laerm;50712;49.506;10.400;2023-06-10T02:54:51;34.70;31.11;39.52;;
64393;Laerm;50712;49.506;10.400;2023-06-10T02:55:21;34.47;30.25;39.21;;
64393;Laerm;50712;49.506;10.400;2023-06-10T02:55:57;35.04;31.12;42.56;;
64393;Laerm;50712;49.506;10.400;2023-06-10T02:56:28;37.77;33.11;42.74;;
64393;Laerm;50712;49.506;10.400;2023-06-10T02:57:01;38.11;33.18;44.37;;
64393;Laerm;50712;49.506;10.400;2023-06-10T02:57:33;36.04;32.07;40.01;;
64393;Laerm;50712;49.506;10.400;2023-06-10T02:58:04;34.71;31.02;39.07;;
64393;Laerm;50712;49.506;10.400;2023-06-10T02:58:35;34.69;30.28;40.35;;
64393;Laerm;50712;49.506;10.400;2023-06-10T02:59:07;37.49;30.79;44.19;;
64393;Laerm;50712;49.506;10.400;2023-06-10T02:59:38;40.27;35.63;44.12;;
64393;Laerm;50712;49.506;10.400;2023-06-10T03:00:41;38.17;34.24;48.50;;
64393;Laerm;50712;49.506;10.400;2023-06-10T03:01:14;38.08;33.29;43.51;;
64393;Laerm;50712;49.506;10.400;2023-06-10T03:01:56;34.95;31.40;39.00;;
64393;Laerm;50712;49.506;10.400;2023-06-10T03:02:28;34.36;30.76;38.75;;
64393;Laerm;50712;49.506;10.400;2023-06-10T03:03:00;38.80;31.31;41.74;;
64393;Laerm;50712;49.506;10.400;2023-06-10T03:03:37;34.99;30.13;41.71;;
64393;Laerm;50712;49.506;10.400;2023-06-10T03:04:13;33.93;30.74;37.75;;
64393;Laerm;50712;49.506;10.400;2023-06-10T03:04:47;33.59;30.33;38.05;;